sensor_id;sensor_type;location;lat;lon;timestamp;P1;durP1;ratioP1;P2;durP2;ratioP2
82030;SDS011;71592;52.178;4.512;2024-03-02T00:02:02;1.92;;;0.88;;
82030;SDS011;71592;52.178;4.512;2024-03-02T00:04:28;1.10;;;0.90;;
82030;SDS011;71592;52.178;4.512;2024-03-02T00:06:53;1.50;;;0.90;;
82030;SDS011;71592;52.178;4.512;2024-03-02T00:09:21;1.45;;;1.05;;
82030;SDS011;71592;52.178;4.512;2024-03-02T00:11:46;2.50;;;0.90;;
82030;SDS011;71592;52.178;4.512;2024-03-02T00:14:12;1.40;;;1.30;;
82030;SDS011;71592;52.178;4.512;2024-03-02T00:16:37;1.60;;;1.33;;
82030;SDS011;71592;52.178;4.512;2024-03-02T00:19:03;1.60;;;1.10;;
82030;SDS011;71592;52.178;4.512;2024-03-02T00:21:29;4.18;;;3.88;;
82030;SDS011;71592;52.178;4.512;2024-03-02T00:23:54;4.75;;;1.40;;
82030;SDS011;71592;52.178;4.512;2024-03-02T00:26:20;3.20;;;1.40;;
82030;SDS011;71592;52.178;4.512;2024-03-02T00:28:45;2.20;;;1.40;;
82030;SDS011;71592;52.178;4.512;2024-03-02T00:31:13;1.63;;;1.23;;
82030;SDS011;71592;52.178;4.512;2024-03-02T00:33:46;1.15;;;0.73;;
82030;SDS011;71592;52.178;4.512;2024-03-02T00:36:15;2.55;;;0.82;;
82030;SDS011;71592;52.178;4.512;2024-03-02T00:38:46;2.05;;;1.25;;
82030;SDS011;71592;52.178;4.512;2024-03-02T00:41:15;1.50;;;1.20;;
82030;SDS011;71592;52.178;4.512;2024-03-02T00:43:45;3.20;;;1.42;;
82030;SDS011;71592;52.178;4.512;2024-03-02T00:46:11;1.00;;;0.85;;
82030;SDS011;71592;52.178;4.512;2024-03-02T00:48:36;1.70;;;1.35;;
82030;SDS011;71592;52.178;4.512;2024-03-02T00:51:05;2.77;;;1.47;;
82030;SDS011;71592;52.178;4.512;2024-03-02T00:53:30;2.75;;;1.35;;
82030;SDS011;71592;52.178;4.512;2024-03-02T00:55:56;2.22;;;1.45;;
82030;SDS011;71592;52.178;4.512;2024-03-02T00:58:22;2.00;;;1.20;;
82030;SDS011;71592;52.178;4.512;2024-03-02T01:00:47;2.00;;;1.70;;
82030;SDS011;71592;52.178;4.512;2024-03-02T01:03:12;1.88;;;1.10;;
82030;SDS011;71592;52.178;4.512;2024-03-02T01:05:41;2.10;;;1.37;;
82030;SDS011;71592;52.178;4.512;2024-03-02T01:08:06;2.45;;;1.10;;
82030;SDS011;71592;52.178;4.512;2024-03-02T01:10:35;1.07;;;0.97;;
82030;SDS011;71592;52.178;4.512;2024-03-02T01:13:00;1.80;;;0.90;;
82030;SDS011;71592;52.178;4.512;2024-03-02T01:15:25;1.02;;;0.93;;
82030;SDS011;71592;52.178;4.512;2024-03-02T01:17:50;3.37;;;1.17;;
82030;SDS011;71592;52.178;4.512;2024-03-02T01:20:16;1.97;;;1.20;;
82030;SDS011;71592;52.178;4.512;2024-03-02T01:22:41;1.80;;;1.07;;
82030;SDS011;71592;52.178;4.512;2024-03-02T01:25:06;2.30;;;1.63;;
82030;SDS011;71592;52.178;4.512;2024-03-02T01:27:33;2.00;;;1.58;;
82030;SDS011;71592;52.178;4.512;2024-03-02T01:29:58;1.33;;;1.23;;
82030;SDS011;71592;52.178;4.512;2024-03-02T01:32:24;2.25;;;1.33;;
82030;SDS011;71592;52.178;4.512;2024-03-02T01:34:50;1.90;;;1.33;;
82030;SDS011;71592;52.178;4.512;2024-03-02T01:37:15;2.13;;;1.50;;
82030;SDS011;71592;52.178;4.512;2024-03-02T01:39:40;2.03;;;1.30;;
82030;SDS011;71592;52.178;4.512;2024-03-02T01:42:05;3.23;;;1.50;;
82030;SDS011;71592;52.178;4.512;2024-03-02T01:44:31;3.05;;;2.75;;
82030;SDS011;71592;52.178;4.512;2024-03-02T01:46:56;1.70;;;1.30;;
82030;SDS011;71592;52.178;4.512;2024-03-02T01:49:21;2.00;;;1.67;;
82030;SDS011;71592;52.178;4.512;2024-03-02T01:51:47;1.45;;;1.00;;
82030;SDS011;71592;52.178;4.512;2024-03-02T01:54:13;1.55;;;0.90;;
82030;SDS011;71592;52.178;4.512;2024-03-02T01:56:38;1.53;;;1.43;;
82030;SDS011;71592;52.178;4.512;2024-03-02T01:59:03;1.90;;;1.40;;
82030;SDS011;71592;52.178;4.512;2024-03-02T02:01:28;2.93;;;1.20;;
82030;SDS011;71592;52.178;4.512;2024-03-02T02:03:54;1.30;;;1.20;;
82030;SDS011;71592;52.178;4.512;2024-03-02T02:06:19;1.25;;;0.82;;
82030;SDS011;71592;52.178;4.512;2024-03-02T02:08:44;1.43;;;0.97;;
82030;SDS011;71592;52.178;4.512;2024-03-02T02:11:10;2.13;;;1.63;;
82030;SDS011;71592;52.178;4.512;2024-03-02T02:13:35;2.35;;;1.27;;
82030;SDS011;71592;52.178;4.512;2024-03-02T02:16:05;3.23;;;1.63;;
82030;SDS011;71592;52.178;4.512;2024-03-02T02:18:30;3.22;;;1.90;;
82030;SDS011;71592;52.178;4.512;2024-03-02T02:20:55;3.87;;;2.00;;
82030;SDS011;71592;52.178;4.512;2024-03-02T02:23:20;4.43;;;2.73;;
82030;SDS011;71592;52.178;4.512;2024-03-02T02:25:46;4.17;;;2.80;;
82030;SDS011;71592;52.178;4.512;2024-03-02T02:28:11;6.33;;;3.50;;
82030;SDS011;71592;52.178;4.512;2024-03-02T02:30:36;4.33;;;2.90;;
82030;SDS011;71592;52.178;4.512;2024-03-02T02:33:01;4.23;;;2.73;;
82030;SDS011;71592;52.178;4.512;2024-03-02T02:35:27;4.40;;;2.58;;
82030;SDS011;71592;52.178;4.512;2024-03-02T02:37:53;3.92;;;2.50;;
82030;SDS011;71592;52.178;4.512;2024-03-02T02:40:19;3.47;;;2.83;;
82030;SDS011;71592;52.178;4.512;2024-03-02T02:42:44;4.95;;;3.05;;
82030;SDS011;71592;52.178;4.512;2024-03-02T02:45:09;4.60;;;3.90;;
82030;SDS011;71592;52.178;4.512;2024-03-02T02:47:36;5.65;;;2.97;;
82030;SDS011;71592;52.178;4.512;2024-03-02T02:50:02;4.95;;;3.40;;
82030;SDS011;71592;52.178;4.512;2024-03-02T02:52:31;4.32;;;3.10;;
82030;SDS011;71592;52.178;4.512;2024-03-02T02:54:58;4.13;;;2.70;;
82030;SDS011;71592;52.178;4.512;2024-03-02T02:57:23;4.10;;;3.10;;
82030;SDS011;71592;52.178;4.512;2024-03-02T02:59:48;3.83;;;2.73;;
82030;SDS011;71592;52.178;4.512;2024-03-02T03:02:13;4.20;;;3.13;;
82030;SDS011;71592;52.178;4.512;2024-03-02T03:04:39;3.50;;;2.70;;
82030;SDS011;71592;52.178;4.512;2024-03-02T03:07:05;3.05;;;1.92;;
82030;SDS011;71592;52.178;4.512;2024-03-02T03:09:30;3.37;;;2.70;;
82030;SDS011;71592;52.178;4.512;2024-03-02T03:11:55;3.43;;;1.93;;
82030;SDS011;71592;52.178;4.512;2024-03-02T03:14:23;3.88;;;2.80;;
82030;SDS011;71592;52.178;4.512;2024-03-02T03:16:49;4.20;;;2.28;;
82030;SDS011;71592;52.178;4.512;2024-03-02T03:19:15;3.97;;;2.30;;
82030;SDS011;71592;52.178;4.512;2024-03-02T03:21:40;3.70;;;2.30;;
82030;SDS011;71592;52.178;4.512;2024-03-02T03:24:05;2.97;;;2.20;;
82030;SDS011;71592;52.178;4.512;2024-03-02T03:26:31;3.17;;;2.15;;
82030;SDS011;71592;52.178;4.512;2024-03-02T03:28:56;3.63;;;2.20;;
82030;SDS011;71592;52.178;4.512;2024-03-02T03:31:21;3.37;;;2.00;;
82030;SDS011;71592;52.178;4.512;2024-03-02T03:33:47;4.30;;;2.27;;
82030;SDS011;71592;52.178;4.512;2024-03-02T03:36:12;3.20;;;2.78;;
82030;SDS011;71592;52.178;4.512;2024-03-02T03:38:37;4.00;;;1.97;;
82030;SDS011;71592;52.178;4.512;2024-03-02T03:41:03;3.10;;;2.37;;
82030;SDS011;71592;52.178;4.512;2024-03-02T03:43:28;3.45;;;1.67;;
82030;SDS011;71592;52.178;4.512;2024-03-02T03:45:54;2.90;;;1.80;;
82030;SDS011;71592;52.178;4.512;2024-03-02T03:48:19;3.33;;;1.90;;
82030;SDS011;71592;52.178;4.512;2024-03-02T03:50:45;3.15;;;2.03;;
82030;SDS011;71592;52.178;4.512;2024-03-02T03:53:10;3.63;;;1.88;;
82030;SDS011;71592;52.178;4.512;2024-03-02T03:55:35;3.13;;;2.10;;
82030;SDS011;71592;52.178;4.512;2024-03-02T03:58:01;3.23;;;1.90;;
82030;SDS011;71592;52.178;4.512;2024-03-02T04:00:26;2.83;;;1.60;;
82030;SDS011;71592;52.178;4.512;2024-03-02T04:02:51;4.23;;;2.50;;
82030;SDS011;71592;52.178;4.512;2024-03-02T04:05:16;2.00;;;1.40;;
82030;SDS011;71592;52.178;4.512;2024-03-02T04:07:42;3.50;;;2.07;;
82030;SDS011;71592;52.178;4.512;2024-03-02T04:10:08;4.03;;;2.40;;
82030;SDS011;71592;52.178;4.512;2024-03-02T04:12:34;3.92;;;2.40;;
82030;SDS011;71592;52.178;4.512;2024-03-02T04:15:01;4.07;;;2.35;;
82030;SDS011;71592;52.178;4.512;2024-03-02T04:17:26;3.53;;;1.90;;
82030;SDS011;71592;52.178;4.512;2024-03-02T04:19:52;4.80;;;2.63;;
82030;SDS011;71592;52.178;4.512;2024-03-02T04:22:17;2.95;;;1.77;;
82030;SDS011;71592;52.178;4.512;2024-03-02T04:24:42;4.70;;;2.20;;
82030;SDS011;71592;52.178;4.512;2024-03-02T04:27:08;2.77;;;1.87;;
82030;SDS011;71592;52.178;4.512;2024-03-02T04:29:33;3.20;;;1.70;;
82030;SDS011;71592;52.178;4.512;2024-03-02T04:31:58;2.80;;;2.43;;
82030;SDS011;71592;52.178;4.512;2024-03-02T04:34:23;3.20;;;2.03;;
82030;SDS011;71592;52.178;4.512;2024-03-02T04:36:48;3.73;;;2.73;;
82030;SDS011;71592;52.178;4.512;2024-03-02T04:39:14;2.50;;;1.83;;
82030;SDS011;71592;52.178;4.512;2024-03-02T04:41:39;3.07;;;1.80;;
82030;SDS011;71592;52.178;4.512;2024-03-02T04:44:04;3.30;;;2.87;;
82030;SDS011;71592;52.178;4.512;2024-03-02T04:46:29;3.73;;;1.90;;
82030;SDS011;71592;52.178;4.512;2024-03-02T04:48:56;2.75;;;2.17;;
82030;SDS011;71592;52.178;4.512;2024-03-02T04:51:22;2.25;;;1.90;;
82030;SDS011;71592;52.178;4.512;2024-03-02T04:53:47;4.88;;;1.67;;
82030;SDS011;71592;52.178;4.512;2024-03-02T04:56:12;4.13;;;2.53;;
82030;SDS011;71592;52.178;4.512;2024-03-02T04:59:08;4.05;;;2.20;;
82030;SDS011;71592;52.178;4.512;2024-03-02T05:01:33;3.07;;;1.63;;
82030;SDS011;71592;52.178;4.512;2024-03-02T05:03:59;3.30;;;1.80;;
82030;SDS011;71592;52.178;4.512;2024-03-02T05:06:24;3.13;;;1.77;;
82030;SDS011;71592;52.178;4.512;2024-03-02T05:08:49;2.43;;;1.70;;
82030;SDS011;71592;52.178;4.512;2024-03-02T05:11:14;2.70;;;1.97;;
82030;SDS011;71592;52.178;4.512;2024-03-02T05:13:58;2.28;;;1.52;;
82030;SDS011;71592;52.178;4.512;2024-03-02T05:16:23;3.83;;;1.63;;
82030;SDS011;71592;52.178;4.512;2024-03-02T05:18:49;3.27;;;1.47;;
82030;SDS011;71592;52.178;4.512;2024-03-02T05:21:14;2.85;;;1.70;;
82030;SDS011;71592;52.178;4.512;2024-03-02T05:23:39;4.73;;;1.60;;
82030;SDS011;71592;52.178;4.512;2024-03-02T05:26:05;3.37;;;1.90;;
82030;SDS011;71592;52.178;4.512;2024-03-02T05:28:30;1.38;;;1.25;;
82030;SDS011;71592;52.178;4.512;2024-03-02T05:30:56;3.20;;;1.83;;
82030;SDS011;71592;52.178;4.512;2024-03-02T05:33:21;3.40;;;2.00;;
82030;SDS011;71592;52.178;4.512;2024-03-02T05:35:47;2.25;;;1.50;;
82030;SDS011;71592;52.178;4.512;2024-03-02T05:38:14;2.53;;;1.90;;
82030;SDS011;71592;52.178;4.512;2024-03-02T05:40:40;2.90;;;1.60;;
82030;SDS011;71592;52.178;4.512;2024-03-02T05:43:05;2.33;;;1.33;;
82030;SDS011;71592;52.178;4.512;2024-03-02T05:45:30;4.68;;;1.83;;
82030;SDS011;71592;52.178;4.512;2024-03-02T05:47:55;2.43;;;1.57;;
82030;SDS011;71592;52.178;4.512;2024-03-02T05:50:21;1.27;;;1.07;;
82030;SDS011;71592;52.178;4.512;2024-03-02T05:52:46;1.53;;;1.23;;
82030;SDS011;71592;52.178;4.512;2024-03-02T05:55:12;3.58;;;1.50;;
82030;SDS011;71592;52.178;4.512;2024-03-02T05:57:37;2.30;;;1.80;;
82030;SDS011;71592;52.178;4.512;2024-03-02T06:00:08;3.35;;;1.20;;
82030;SDS011;71592;52.178;4.512;2024-03-02T06:02:33;1.60;;;1.27;;
82030;SDS011;71592;52.178;4.512;2024-03-02T06:05:00;1.70;;;1.17;;
82030;SDS011;71592;52.178;4.512;2024-03-02T06:07:25;1.27;;;0.93;;
82030;SDS011;71592;52.178;4.512;2024-03-02T06:09:50;2.83;;;1.50;;
82030;SDS011;71592;52.178;4.512;2024-03-02T06:12:17;1.48;;;1.17;;
82030;SDS011;71592;52.178;4.512;2024-03-02T06:14:43;2.70;;;1.27;;
82030;SDS011;71592;52.178;4.512;2024-03-02T06:17:08;2.30;;;1.42;;
82030;SDS011;71592;52.178;4.512;2024-03-02T06:19:33;2.03;;;1.20;;
82030;SDS011;71592;52.178;4.512;2024-03-02T06:21:58;1.20;;;1.10;;
82030;SDS011;71592;52.178;4.512;2024-03-02T06:24:24;2.73;;;1.30;;
82030;SDS011;71592;52.178;4.512;2024-03-02T06:26:51;1.20;;;1.10;;
82030;SDS011;71592;52.178;4.512;2024-03-02T06:29:17;1.25;;;1.00;;
82030;SDS011;71592;52.178;4.512;2024-03-02T06:31:42;2.97;;;1.40;;
82030;SDS011;71592;52.178;4.512;2024-03-02T06:34:07;1.33;;;1.20;;
82030;SDS011;71592;52.178;4.512;2024-03-02T06:36:33;1.70;;;1.40;;
82030;SDS011;71592;52.178;4.512;2024-03-02T06:38:58;3.00;;;1.77;;
82030;SDS011;71592;52.178;4.512;2024-03-02T06:41:24;3.77;;;1.20;;
82030;SDS011;71592;52.178;4.512;2024-03-02T06:43:49;1.57;;;1.00;;
82030;SDS011;71592;52.178;4.512;2024-03-02T06:46:14;2.10;;;1.88;;
82030;SDS011;71592;52.178;4.512;2024-03-02T06:48:40;1.93;;;1.30;;
82030;SDS011;71592;52.178;4.512;2024-03-02T06:51:05;2.35;;;1.33;;
82030;SDS011;71592;52.178;4.512;2024-03-02T06:53:30;2.33;;;1.60;;
82030;SDS011;71592;52.178;4.512;2024-03-02T06:55:58;11.25;;;2.00;;
82030;SDS011;71592;52.178;4.512;2024-03-02T06:58:23;2.37;;;1.30;;
82030;SDS011;71592;52.178;4.512;2024-03-02T07:00:49;1.67;;;1.50;;
82030;SDS011;71592;52.178;4.512;2024-03-02T07:03:14;1.20;;;0.95;;
82030;SDS011;71592;52.178;4.512;2024-03-02T07:05:40;1.40;;;1.17;;
82030;SDS011;71592;52.178;4.512;2024-03-02T07:08:05;2.67;;;1.07;;
82030;SDS011;71592;52.178;4.512;2024-03-02T07:10:31;0.90;;;0.77;;
82030;SDS011;71592;52.178;4.512;2024-03-02T07:12:56;5.67;;;1.97;;
82030;SDS011;71592;52.178;4.512;2024-03-02T07:15:21;3.80;;;1.47;;
82030;SDS011;71592;52.178;4.512;2024-03-02T07:17:55;1.40;;;1.30;;
82030;SDS011;71592;52.178;4.512;2024-03-02T07:20:20;2.63;;;1.33;;
82030;SDS011;71592;52.178;4.512;2024-03-02T07:22:46;2.75;;;1.30;;
82030;SDS011;71592;52.178;4.512;2024-03-02T07:25:11;1.67;;;1.20;;
82030;SDS011;71592;52.178;4.512;2024-03-02T07:27:36;1.15;;;0.93;;
82030;SDS011;71592;52.178;4.512;2024-03-02T07:30:02;1.37;;;1.17;;
82030;SDS011;71592;52.178;4.512;2024-03-02T07:32:28;2.55;;;0.88;;
82030;SDS011;71592;52.178;4.512;2024-03-02T07:34:53;1.53;;;1.33;;
82030;SDS011;71592;52.178;4.512;2024-03-02T07:37:18;1.50;;;1.33;;
82030;SDS011;71592;52.178;4.512;2024-03-02T07:39:45;3.67;;;1.40;;
82030;SDS011;71592;52.178;4.512;2024-03-02T07:42:10;3.40;;;3.08;;
82030;SDS011;71592;52.178;4.512;2024-03-02T07:44:36;1.15;;;0.80;;
82030;SDS011;71592;52.178;4.512;2024-03-02T07:47:01;3.03;;;1.88;;
82030;SDS011;71592;52.178;4.512;2024-03-02T07:49:27;2.80;;;1.40;;
82030;SDS011;71592;52.178;4.512;2024-03-02T07:51:52;2.07;;;1.07;;
82030;SDS011;71592;52.178;4.512;2024-03-02T07:54:17;6.10;;;1.67;;
82030;SDS011;71592;52.178;4.512;2024-03-02T07:56:42;2.17;;;1.20;;
82030;SDS011;71592;52.178;4.512;2024-03-02T07:59:08;3.33;;;1.30;;
82030;SDS011;71592;52.178;4.512;2024-03-02T08:01:33;3.00;;;1.30;;
82030;SDS011;71592;52.178;4.512;2024-03-02T08:03:59;2.25;;;2.15;;
82030;SDS011;71592;52.178;4.512;2024-03-02T08:06:24;1.65;;;0.90;;
82030;SDS011;71592;52.178;4.512;2024-03-02T08:08:53;2.67;;;1.20;;
82030;SDS011;71592;52.178;4.512;2024-03-02T08:11:18;3.05;;;1.30;;
82030;SDS011;71592;52.178;4.512;2024-03-02T08:13:43;0.70;;;0.70;;
82030;SDS011;71592;52.178;4.512;2024-03-02T08:16:09;1.30;;;1.03;;
82030;SDS011;71592;52.178;4.512;2024-03-02T08:18:34;2.53;;;1.40;;
82030;SDS011;71592;52.178;4.512;2024-03-02T08:21:00;3.05;;;1.30;;
82030;SDS011;71592;52.178;4.512;2024-03-02T08:23:25;1.65;;;1.20;;
82030;SDS011;71592;52.178;4.512;2024-03-02T08:25:51;3.00;;;1.10;;
82030;SDS011;71592;52.178;4.512;2024-03-02T08:28:16;3.47;;;1.50;;
82030;SDS011;71592;52.178;4.512;2024-03-02T08:30:42;4.57;;;1.38;;
82030;SDS011;71592;52.178;4.512;2024-03-02T08:33:07;3.27;;;1.40;;
82030;SDS011;71592;52.178;4.512;2024-03-02T08:35:33;1.50;;;1.17;;
82030;SDS011;71592;52.178;4.512;2024-03-02T08:38:02;3.53;;;1.30;;
82030;SDS011;71592;52.178;4.512;2024-03-02T08:40:28;1.98;;;1.13;;
82030;SDS011;71592;52.178;4.512;2024-03-02T08:42:53;3.05;;;1.40;;
82030;SDS011;71592;52.178;4.512;2024-03-02T08:45:18;2.50;;;1.23;;
82030;SDS011;71592;52.178;4.512;2024-03-02T08:47:45;3.28;;;1.33;;
82030;SDS011;71592;52.178;4.512;2024-03-02T08:50:10;1.30;;;1.20;;
82030;SDS011;71592;52.178;4.512;2024-03-02T08:52:36;2.30;;;1.15;;
82030;SDS011;71592;52.178;4.512;2024-03-02T08:55:01;1.65;;;1.40;;
82030;SDS011;71592;52.178;4.512;2024-03-02T08:57:30;6.85;;;1.20;;
82030;SDS011;71592;52.178;4.512;2024-03-02T08:59:55;2.95;;;1.60;;
82030;SDS011;71592;52.178;4.512;2024-03-02T09:02:21;5.90;;;1.67;;
82030;SDS011;71592;52.178;4.512;2024-03-02T09:04:46;3.00;;;1.50;;
82030;SDS011;71592;52.178;4.512;2024-03-02T09:07:11;3.10;;;1.30;;
82030;SDS011;71592;52.178;4.512;2024-03-02T09:09:37;5.37;;;1.30;;
82030;SDS011;71592;52.178;4.512;2024-03-02T09:12:04;3.95;;;1.23;;
82030;SDS011;71592;52.178;4.512;2024-03-02T09:14:29;1.80;;;1.00;;
82030;SDS011;71592;52.178;4.512;2024-03-02T09:16:54;2.92;;;1.10;;
82030;SDS011;71592;52.178;4.512;2024-03-02T09:19:20;3.90;;;2.30;;
82030;SDS011;71592;52.178;4.512;2024-03-02T09:21:45;3.40;;;2.03;;
82030;SDS011;71592;52.178;4.512;2024-03-02T09:24:10;2.43;;;1.10;;
82030;SDS011;71592;52.178;4.512;2024-03-02T09:26:35;2.73;;;1.27;;
82030;SDS011;71592;52.178;4.512;2024-03-02T09:29:01;3.42;;;1.20;;
82030;SDS011;71592;52.178;4.512;2024-03-02T09:31:26;2.57;;;1.30;;
82030;SDS011;71592;52.178;4.512;2024-03-02T09:33:52;6.53;;;2.47;;
82030;SDS011;71592;52.178;4.512;2024-03-02T09:36:17;2.60;;;1.67;;
82030;SDS011;71592;52.178;4.512;2024-03-02T09:38:43;3.05;;;1.13;;
82030;SDS011;71592;52.178;4.512;2024-03-02T09:41:09;2.75;;;1.48;;
82030;SDS011;71592;52.178;4.512;2024-03-02T09:43:34;3.10;;;1.05;;
82030;SDS011;71592;52.178;4.512;2024-03-02T09:45:59;3.13;;;1.60;;
82030;SDS011;71592;52.178;4.512;2024-03-02T09:48:25;3.42;;;1.20;;
82030;SDS011;71592;52.178;4.512;2024-03-02T09:50:50;2.43;;;1.13;;
82030;SDS011;71592;52.178;4.512;2024-03-02T09:53:16;3.80;;;1.00;;
82030;SDS011;71592;52.178;4.512;2024-03-02T09:55:45;5.15;;;1.40;;
82030;SDS011;71592;52.178;4.512;2024-03-02T09:58:11;5.50;;;1.42;;
82030;SDS011;71592;52.178;4.512;2024-03-02T10:00:37;2.38;;;1.05;;
82030;SDS011;71592;52.178;4.512;2024-03-02T10:03:02;2.35;;;0.90;;
82030;SDS011;71592;52.178;4.512;2024-03-02T10:05:29;2.05;;;1.00;;
82030;SDS011;71592;52.178;4.512;2024-03-02T10:08:01;2.45;;;1.20;;
82030;SDS011;71592;52.178;4.512;2024-03-02T10:10:34;5.57;;;1.65;;
82030;SDS011;71592;52.178;4.512;2024-03-02T10:13:06;2.80;;;1.00;;
82030;SDS011;71592;52.178;4.512;2024-03-02T10:15:32;2.60;;;1.23;;
82030;SDS011;71592;52.178;4.512;2024-03-02T10:17:57;0.80;;;0.80;;
82030;SDS011;71592;52.178;4.512;2024-03-02T10:20:24;3.70;;;0.90;;
82030;SDS011;71592;52.178;4.512;2024-03-02T10:22:49;2.53;;;1.10;;
82030;SDS011;71592;52.178;4.512;2024-03-02T10:25:31;2.05;;;1.30;;
82030;SDS011;71592;52.178;4.512;2024-03-02T10:27:59;2.90;;;1.27;;
82030;SDS011;71592;52.178;4.512;2024-03-02T10:30:25;2.65;;;1.20;;
82030;SDS011;71592;52.178;4.512;2024-03-02T10:32:51;1.80;;;0.70;;
82030;SDS011;71592;52.178;4.512;2024-03-02T10:35:17;1.92;;;0.90;;
82030;SDS011;71592;52.178;4.512;2024-03-02T10:37:42;2.30;;;1.00;;
82030;SDS011;71592;52.178;4.512;2024-03-02T10:40:09;2.93;;;1.27;;
82030;SDS011;71592;52.178;4.512;2024-03-02T10:42:35;4.28;;;1.35;;
82030;SDS011;71592;52.178;4.512;2024-03-02T10:45:01;2.28;;;1.02;;
82030;SDS011;71592;52.178;4.512;2024-03-02T10:47:26;2.20;;;1.15;;
82030;SDS011;71592;52.178;4.512;2024-03-02T10:49:52;2.15;;;1.02;;
82030;SDS011;71592;52.178;4.512;2024-03-02T10:52:19;2.63;;;0.90;;
82030;SDS011;71592;52.178;4.512;2024-03-02T10:54:45;2.47;;;1.20;;
82030;SDS011;71592;52.178;4.512;2024-03-02T10:57:11;3.45;;;1.20;;
82030;SDS011;71592;52.178;4.512;2024-03-02T10:59:44;3.38;;;1.30;;
82030;SDS011;71592;52.178;4.512;2024-03-02T11:02:13;4.60;;;1.52;;
82030;SDS011;71592;52.178;4.512;2024-03-02T11:04:38;5.37;;;1.33;;
82030;SDS011;71592;52.178;4.512;2024-03-02T11:07:05;2.70;;;1.10;;
82030;SDS011;71592;52.178;4.512;2024-03-02T11:09:35;3.53;;;1.17;;
82030;SDS011;71592;52.178;4.512;2024-03-02T11:15:03;2.75;;;1.40;;
82030;SDS011;71592;52.178;4.512;2024-03-02T11:17:29;2.80;;;1.10;;
82030;SDS011;71592;52.178;4.512;2024-03-02T11:19:55;3.25;;;1.20;;
82030;SDS011;71592;52.178;4.512;2024-03-02T11:22:21;2.03;;;1.15;;
82030;SDS011;71592;52.178;4.512;2024-03-02T11:24:51;4.60;;;1.48;;
82030;SDS011;71592;52.178;4.512;2024-03-02T11:27:58;1.27;;;1.10;;
82030;SDS011;71592;52.178;4.512;2024-03-02T11:30:02;3.00;;;1.83;;
82030;SDS011;71592;52.178;4.512;2024-03-02T11:32:28;2.15;;;1.17;;
82030;SDS011;71592;52.178;4.512;2024-03-02T11:34:53;3.33;;;1.40;;
82030;SDS011;71592;52.178;4.512;2024-03-02T11:37:19;3.83;;;1.30;;
82030;SDS011;71592;52.178;4.512;2024-03-02T11:39:51;4.88;;;1.60;;
82030;SDS011;71592;52.178;4.512;2024-03-02T11:42:16;5.00;;;1.40;;
82030;SDS011;71592;52.178;4.512;2024-03-02T11:44:42;3.17;;;1.10;;
82030;SDS011;71592;52.178;4.512;2024-03-02T11:47:08;4.15;;;1.50;;
82030;SDS011;71592;52.178;4.512;2024-03-02T11:49:43;2.15;;;1.10;;
82030;SDS011;71592;52.178;4.512;2024-03-02T11:52:10;4.10;;;2.05;;
82030;SDS011;71592;52.178;4.512;2024-03-02T11:54:40;3.47;;;1.40;;
82030;SDS011;71592;52.178;4.512;2024-03-02T11:57:06;4.45;;;1.73;;
82030;SDS011;71592;52.178;4.512;2024-03-02T11:59:34;1.67;;;1.20;;
82030;SDS011;71592;52.178;4.512;2024-03-02T12:02:00;2.50;;;1.00;;
82030;SDS011;71592;52.178;4.512;2024-03-02T12:04:25;2.47;;;1.02;;
82030;SDS011;71592;52.178;4.512;2024-03-02T12:06:58;3.88;;;1.48;;
82030;SDS011;71592;52.178;4.512;2024-03-02T12:09:27;4.40;;;1.38;;
82030;SDS011;71592;52.178;4.512;2024-03-02T12:12:05;3.65;;;0.90;;
82030;SDS011;71592;52.178;4.512;2024-03-02T12:14:32;2.33;;;1.13;;
82030;SDS011;71592;52.178;4.512;2024-03-02T12:16:57;1.88;;;0.70;;
82030;SDS011;71592;52.178;4.512;2024-03-02T12:19:24;1.70;;;0.70;;
82030;SDS011;71592;52.178;4.512;2024-03-02T12:21:49;1.83;;;1.10;;
82030;SDS011;71592;52.178;4.512;2024-03-02T12:24:15;1.17;;;0.90;;
82030;SDS011;71592;52.178;4.512;2024-03-02T12:26:40;1.45;;;0.93;;
82030;SDS011;71592;52.178;4.512;2024-03-02T12:29:06;2.90;;;1.15;;
82030;SDS011;71592;52.178;4.512;2024-03-02T12:31:31;3.55;;;1.52;;
82030;SDS011;71592;52.178;4.512;2024-03-02T12:33:57;2.63;;;1.10;;
82030;SDS011;71592;52.178;4.512;2024-03-02T12:36:23;3.30;;;1.20;;
82030;SDS011;71592;52.178;4.512;2024-03-02T12:38:48;3.42;;;1.05;;
82030;SDS011;71592;52.178;4.512;2024-03-02T12:41:18;2.63;;;1.30;;
82030;SDS011;71592;52.178;4.512;2024-03-02T12:43:43;1.87;;;1.23;;
82030;SDS011;71592;52.178;4.512;2024-03-02T12:46:08;1.27;;;0.77;;
82030;SDS011;71592;52.178;4.512;2024-03-02T12:48:34;2.97;;;1.10;;
82030;SDS011;71592;52.178;4.512;2024-03-02T12:50:59;2.80;;;1.30;;
82030;SDS011;71592;52.178;4.512;2024-03-02T12:53:25;2.15;;;1.83;;
82030;SDS011;71592;52.178;4.512;2024-03-02T12:55:50;5.88;;;1.80;;
82030;SDS011;71592;52.178;4.512;2024-03-02T12:58:19;2.42;;;1.33;;
82030;SDS011;71592;52.178;4.512;2024-03-02T13:00:46;2.97;;;1.20;;
82030;SDS011;71592;52.178;4.512;2024-03-02T13:03:11;2.47;;;1.30;;
82030;SDS011;71592;52.178;4.512;2024-03-02T13:05:37;3.58;;;1.00;;
82030;SDS011;71592;52.178;4.512;2024-03-02T13:08:02;2.27;;;1.10;;
82030;SDS011;71592;52.178;4.512;2024-03-02T13:10:29;4.15;;;1.88;;
82030;SDS011;71592;52.178;4.512;2024-03-02T13:12:55;2.63;;;1.03;;
82030;SDS011;71592;52.178;4.512;2024-03-02T13:15:21;2.78;;;1.15;;
82030;SDS011;71592;52.178;4.512;2024-03-02T13:17:46;3.30;;;1.27;;
82030;SDS011;71592;52.178;4.512;2024-03-02T13:20:11;3.17;;;1.40;;
82030;SDS011;71592;52.178;4.512;2024-03-02T13:22:39;1.92;;;1.20;;
82030;SDS011;71592;52.178;4.512;2024-03-02T13:25:04;1.50;;;1.02;;
82030;SDS011;71592;52.178;4.512;2024-03-02T13:27:30;3.13;;;0.90;;
82030;SDS011;71592;52.178;4.512;2024-03-02T13:29:56;4.38;;;1.52;;
82030;SDS011;71592;52.178;4.512;2024-03-02T13:32:22;2.80;;;1.13;;
82030;SDS011;71592;52.178;4.512;2024-03-02T13:34:49;3.00;;;1.75;;
82030;SDS011;71592;52.178;4.512;2024-03-02T13:37:14;5.82;;;1.48;;
82030;SDS011;71592;52.178;4.512;2024-03-02T13:39:40;2.97;;;1.13;;
82030;SDS011;71592;52.178;4.512;2024-03-02T13:42:09;3.70;;;1.48;;
82030;SDS011;71592;52.178;4.512;2024-03-02T13:44:35;3.20;;;1.20;;
82030;SDS011;71592;52.178;4.512;2024-03-02T13:47:01;3.43;;;1.47;;
82030;SDS011;71592;52.178;4.512;2024-03-02T13:49:26;2.47;;;1.02;;
82030;SDS011;71592;52.178;4.512;2024-03-02T13:51:58;1.25;;;0.60;;
82030;SDS011;71592;52.178;4.512;2024-03-02T13:54:25;3.35;;;1.00;;
82030;SDS011;71592;52.178;4.512;2024-03-02T13:56:51;4.85;;;1.30;;
82030;SDS011;71592;52.178;4.512;2024-03-02T13:59:17;2.83;;;1.30;;
82030;SDS011;71592;52.178;4.512;2024-03-02T14:01:42;2.83;;;1.23;;
82030;SDS011;71592;52.178;4.512;2024-03-02T14:04:07;2.80;;;1.20;;
82030;SDS011;71592;52.178;4.512;2024-03-02T14:06:32;2.70;;;0.90;;
82030;SDS011;71592;52.178;4.512;2024-03-02T14:08:58;2.50;;;0.93;;
82030;SDS011;71592;52.178;4.512;2024-03-02T14:11:23;1.33;;;0.77;;
82030;SDS011;71592;52.178;4.512;2024-03-02T14:13:48;2.63;;;0.90;;
82030;SDS011;71592;52.178;4.512;2024-03-02T14:16:19;1.52;;;0.98;;
82030;SDS011;71592;52.178;4.512;2024-03-02T14:18:44;2.72;;;1.30;;
82030;SDS011;71592;52.178;4.512;2024-03-02T14:21:10;6.17;;;1.20;;
82030;SDS011;71592;52.178;4.512;2024-03-02T14:23:35;6.38;;;1.40;;
82030;SDS011;71592;52.178;4.512;2024-03-02T14:26:03;3.03;;;1.23;;
82030;SDS011;71592;52.178;4.512;2024-03-02T14:28:28;4.53;;;1.52;;
82030;SDS011;71592;52.178;4.512;2024-03-02T14:30:54;4.00;;;1.35;;
82030;SDS011;71592;52.178;4.512;2024-03-02T14:33:20;3.50;;;1.35;;
82030;SDS011;71592;52.178;4.512;2024-03-02T14:35:45;2.28;;;1.13;;
82030;SDS011;71592;52.178;4.512;2024-03-02T14:38:11;3.63;;;1.02;;
82030;SDS011;71592;52.178;4.512;2024-03-02T14:40:36;2.08;;;0.90;;
82030;SDS011;71592;52.178;4.512;2024-03-02T14:43:05;2.83;;;1.38;;
82030;SDS011;71592;52.178;4.512;2024-03-02T14:45:30;6.45;;;1.80;;